Time;durP1;ratioP1;P1;durP2;ratioP2;P2;SDS_P1;SDS_P2;PMS_P1;PMS_P2;Temp;Humidity;BMP_temperature;BMP_pressure;BME280_temperature;BME280_humidity;BME280_pressure;Samples;Min_cycle;Max_cycle;Signal;HPM_P1;HPM_P2
2024/02/29 00:00:09;;;;;;;2.78;0.73;;;11.30;99.90;;;;;;5022609;28;20361;-67
2024/02/29 00:02:36;;;;;;;2.47;0.75;;;11.30;99.90;;;;;;5029241;28;20104;-66
2024/02/29 00:05:04;;;;;;;1.83;0.60;;;11.30;99.90;;;;;;5021987;28;20448;-66
2024/02/29 00:07:31;;;;;;;6.75;1.63;;;11.40;99.90;;;;;;5021477;28;20095;-66
2024/02/29 00:09:58;;;;;;;5.38;1.23;;;11.30;99.90;;;;;;5020562;28;20056;-66
2024/02/29 00:12:25;;;;;;;5.40;1.05;;;11.30;99.90;;;;;;5017927;28;20061;-67
2024/02/29 00:14:52;;;;;;;1.08;0.75;;;11.30;99.90;;;;;;5022924;28;20111;-66
2024/02/29 00:17:19;;;;;;;4.15;1.20;;;11.30;99.90;;;;;;5032628;28;20057;-67
2024/02/29 00:19:46;;;;;;;2.95;1.98;;;11.30;99.90;;;;;;5025092;28;20139;-66
2024/02/29 00:22:13;;;;;;;2.55;1.33;;;11.30;99.90;;;;;;5022135;28;20717;-66
2024/02/29 00:24:41;;;;;;;4.75;1.42;;;11.30;99.90;;;;;;5028573;28;20052;-67
2024/02/29 00:27:08;;;;;;;3.03;1.00;;;11.30;99.90;;;;;;5023950;28;20041;-65
2024/02/29 00:29:35;;;;;;;4.47;1.50;;;11.30;99.90;;;;;;5019700;28;20095;-66
2024/02/29 00:32:02;;;;;;;5.82;2.50;;;11.30;99.90;;;;;;5025294;28;20049;-66
2024/02/29 00:34:28;;;;;;;3.53;1.30;;;11.20;99.90;;;;;;5029063;28;20094;-66
2024/02/29 00:36:56;;;;;;;4.05;1.15;;;11.30;99.90;;;;;;5021746;28;20060;-67
2024/02/29 00:39:23;;;;;;;3.40;1.25;;;11.30;99.90;;;;;;5027466;28;20083;-67
2024/02/29 00:41:50;;;;;;;9.60;2.45;;;11.30;99.90;;;;;;5026998;28;20448;-67
2024/02/29 00:44:17;;;;;;;6.18;1.27;;;11.30;99.90;;;;;;5031660;28;20053;-67
2024/02/29 00:46:43;;;;;;;5.63;1.35;;;11.20;99.90;;;;;;5030793;28;20052;-67
2024/02/29 00:49:13;;;;;;;3.72;1.17;;;11.30;99.90;;;;;;5030441;28;20137;-67
2024/02/29 00:51:41;;;;;;;3.47;1.27;;;11.30;99.90;;;;;;5023800;28;20048;-67
2024/02/29 00:54:08;;;;;;;4.63;1.20;;;11.30;99.90;;;;;;5031185;28;20052;-67
2024/02/29 00:56:35;;;;;;;5.00;1.38;;;11.30;99.90;;;;;;5023945;28;20068;-67
2024/02/29 00:59:02;;;;;;;2.40;1.00;;;11.20;99.90;;;;;;5025491;28;20045;-67
2024/02/29 01:01:28;;;;;;;6.35;1.65;;;11.20;99.90;;;;;;5023542;28;20111;-68
2024/02/29 01:03:55;;;;;;;3.53;1.33;;;11.20;99.90;;;;;;5024745;28;20139;-68
2024/02/29 01:06:22;;;;;;;3.97;0.90;;;11.20;99.90;;;;;;5025542;28;20487;-67
2024/02/29 01:08:49;;;;;;;6.03;1.10;;;11.20;99.90;;;;;;5025361;28;20562;-67
2024/02/29 01:11:17;;;;;;;6.85;1.40;;;11.20;99.90;;;;;;5023199;28;20045;-67
2024/02/29 01:13:43;;;;;;;3.33;1.05;;;11.20;99.90;;;;;;5036382;28;20136;-68
2024/02/29 01:16:10;;;;;;;5.15;1.50;;;11.20;99.90;;;;;;5025956;28;20065;-67
2024/02/29 01:18:37;;;;;;;10.45;3.15;;;11.20;99.90;;;;;;5025218;28;20133;-67
2024/02/29 01:21:06;;;;;;;7.68;1.38;;;11.20;99.90;;;;;;5025804;28;20049;-67
2024/02/29 01:23:33;;;;;;;5.35;1.52;;;11.20;99.90;;;;;;5025868;28;20041;-67
2024/02/29 01:26:00;;;;;;;3.58;1.13;;;11.20;99.90;;;;;;5034059;28;20500;-67
2024/02/29 01:28:26;;;;;;;13.38;2.55;;;11.20;99.90;;;;;;5023819;28;20104;-68
2024/02/29 01:30:53;;;;;;;4.40;1.25;;;11.20;99.90;;;;;;5028644;28;20106;-68
2024/02/29 01:33:20;;;;;;;9.00;2.35;;;11.20;99.90;;;;;;5025020;28;20065;-69
2024/02/29 01:35:47;;;;;;;4.07;1.10;;;11.20;99.90;;;;;;5026388;28;20073;-67
2024/02/29 01:38:14;;;;;;;4.55;1.20;;;11.20;99.90;;;;;;5025614;28;20044;-67
2024/02/29 01:40:45;;;;;;;2.78;1.10;;;11.20;99.90;;;;;;5024266;28;20045;-66
2024/02/29 01:43:12;;;;;;;3.67;0.95;;;11.20;99.90;;;;;;5023612;28;20037;-67
2024/02/29 01:45:39;;;;;;;1.73;0.70;;;11.20;99.90;;;;;;5024336;28;20575;-68
2024/02/29 01:48:06;;;;;;;4.07;0.90;;;11.20;99.90;;;;;;5027404;28;20045;-67
2024/02/29 01:50:33;;;;;;;1.98;0.90;;;11.20;99.90;;;;;;5025561;28;20444;-68
2024/02/29 01:53:00;;;;;;;2.90;0.95;;;11.20;99.90;;;;;;5027466;28;20056;-66
2024/02/29 01:55:26;;;;;;;1.50;0.80;;;11.20;99.90;;;;;;5025463;28;20049;-67
2024/02/29 01:57:53;;;;;;;3.38;1.05;;;11.20;99.90;;;;;;5021990;28;20046;-68
2024/02/29 02:00:20;;;;;;;3.70;0.85;;;11.20;99.90;;;;;;5035002;28;20140;-66
2024/02/29 02:02:47;;;;;;;4.75;1.40;;;11.20;99.90;;;;;;5023653;28;20053;-67
2024/02/29 02:05:14;;;;;;;3.83;0.98;;;11.20;99.90;;;;;;5039492;28;20049;-67
2024/02/29 02:07:43;;;;;;;3.30;1.33;;;11.20;99.90;;;;;;5024604;28;20485;-67
2024/02/29 02:10:11;;;;;;;5.18;0.98;;;11.20;99.90;;;;;;5028291;28;20463;-68
2024/02/29 02:12:38;;;;;;;5.65;0.88;;;11.20;99.90;;;;;;5029575;28;20052;-67
2024/02/29 02:15:06;;;;;;;1.48;0.70;;;11.10;99.90;;;;;;5028963;28;20439;-68
2024/02/29 02:17:33;;;;;;;3.10;0.70;;;11.10;99.90;;;;;;5025069;28;20041;-67
2024/02/29 02:20:00;;;;;;;4.05;0.88;;;11.10;99.90;;;;;;5029532;28;20049;-67
2024/02/29 02:22:28;;;;;;;2.42;0.90;;;11.10;99.90;;;;;;5028080;28;20402;-68
2024/02/29 02:24:55;;;;;;;4.05;1.10;;;11.10;99.90;;;;;;5027767;28;20045;-68
2024/02/29 02:27:23;;;;;;;2.75;0.93;;;11.10;99.90;;;;;;5026649;28;20145;-68
2024/02/29 02:29:49;;;;;;;3.65;0.80;;;11.10;99.90;;;;;;5028509;28;20130;-67
2024/02/29 02:32:16;;;;;;;6.43;0.98;;;11.10;99.90;;;;;;5045391;28;20148;-68
2024/02/29 02:34:43;;;;;;;6.20;1.02;;;11.00;99.90;;;;;;5035327;28;20324;-67
2024/02/29 02:37:10;;;;;;;10.45;1.08;;;11.00;99.90;;;;;;5028150;28;20043;-68
2024/02/29 02:39:37;;;;;;;3.72;0.93;;;11.00;99.90;;;;;;5026518;28;20530;-68
2024/02/29 02:42:04;;;;;;;6.65;1.20;;;11.00;99.90;;;;;;5018676;28;20052;-68
2024/02/29 02:44:31;;;;;;;3.60;0.63;;;11.00;99.90;;;;;;5028949;28;20045;-69
2024/02/29 02:46:58;;;;;;;7.60;1.70;;;11.10;99.90;;;;;;5026860;28;20045;-67
2024/02/29 02:49:25;;;;;;;7.78;1.05;;;11.00;99.90;;;;;;5025741;28;20458;-68
2024/02/29 02:51:52;;;;;;;3.72;0.85;;;11.00;99.90;;;;;;5031242;28;20404;-67
2024/02/29 02:54:18;;;;;;;5.88;0.98;;;11.00;99.90;;;;;;5030537;28;20420;-67
2024/02/29 02:56:45;;;;;;;5.80;1.42;;;10.90;99.90;;;;;;5030932;28;20081;-67
2024/02/29 02:59:12;;;;;;;5.57;1.15;;;10.90;99.90;;;;;;5029948;28;20088;-67
2024/02/29 03:01:39;;;;;;;5.88;0.98;;;10.90;99.90;;;;;;5034488;28;20122;-68
2024/02/29 03:04:06;;;;;;;3.90;0.70;;;10.90;99.90;;;;;;5029979;28;20276;-67
2024/02/29 03:06:33;;;;;;;3.45;0.80;;;10.90;99.90;;;;;;5024741;28;20077;-66
2024/02/29 03:09:00;;;;;;;5.32;1.25;;;11.00;99.90;;;;;;5035442;28;20038;-67
2024/02/29 03:11:26;;;;;;;4.10;1.77;;;10.90;99.90;;;;;;5030004;28;20045;-67
2024/02/29 03:13:53;;;;;;;6.85;1.40;;;10.90;99.90;;;;;;5036068;28;20054;-68
2024/02/29 03:16:22;;;;;;;2.72;0.80;;;10.90;99.90;;;;;;5029101;28;20404;-68
2024/02/29 03:18:49;;;;;;;6.38;1.10;;;10.90;99.90;;;;;;5027601;28;20103;-68
2024/02/29 03:21:16;;;;;;;11.77;1.70;;;11.00;99.90;;;;;;5027548;28;20049;-67
2024/02/29 03:23:43;;;;;;;4.47;1.40;;;11.00;99.90;;;;;;5026068;28;20064;-65
2024/02/29 03:26:10;;;;;;;9.43;1.17;;;11.00;99.90;;;;;;5029923;28;20049;-67
2024/02/29 03:28:37;;;;;;;9.77;1.38;;;11.00;99.90;;;;;;5025031;28;20488;-67
2024/02/29 03:31:03;;;;;;;8.27;1.35;;;10.90;99.90;;;;;;5031144;28;20045;-67
2024/02/29 03:33:30;;;;;;;6.95;1.02;;;10.90;99.90;;;;;;5028035;28;20037;-68
2024/02/29 03:35:57;;;;;;;7.10;1.23;;;10.90;99.90;;;;;;5025523;28;20572;-67
2024/02/29 03:38:27;;;;;;;5.55;1.20;;;10.90;99.90;;;;;;5027461;28;20107;-67
2024/02/29 03:40:53;;;;;;;6.07;1.45;;;10.90;99.90;;;;;;5027434;28;20284;-68
2024/02/29 03:43:20;;;;;;;9.25;1.58;;;10.90;99.90;;;;;;5027398;28;20041;-66
2024/02/29 03:45:47;;;;;;;7.40;1.33;;;10.90;99.90;;;;;;5025119;28;20358;-67
2024/02/29 03:48:14;;;;;;;4.78;1.10;;;10.90;99.90;;;;;;5023695;28;20321;-68
2024/02/29 03:50:41;;;;;;;7.80;1.23;;;10.90;99.90;;;;;;5022285;28;20053;-68
2024/02/29 03:53:07;;;;;;;5.53;1.05;;;10.90;99.90;;;;;;5026218;28;20048;-66
2024/02/29 03:55:34;;;;;;;5.00;0.95;;;10.90;99.90;;;;;;5026031;28;20049;-68
2024/02/29 03:58:02;;;;;;;3.97;1.08;;;10.90;99.90;;;;;;5024770;28;20045;-69
2024/02/29 04:00:30;;;;;;;9.48;1.73;;;10.90;99.90;;;;;;5037889;28;20041;-69
2024/02/29 04:02:57;;;;;;;8.73;1.35;;;10.90;99.90;;;;;;5024801;28;20049;-68
2024/02/29 04:05:24;;;;;;;11.73;1.95;;;10.90;99.90;;;;;;5011722;28;20508;-67
2024/02/29 04:07:53;;;;;;;5.05;1.10;;;10.90;99.90;;;;;;5023554;28;20049;-67
2024/02/29 04:10:20;;;;;;;11.43;1.55;;;10.90;99.90;;;;;;5024402;28;20080;-68
2024/02/29 04:12:47;;;;;;;7.20;1.48;;;10.90;99.90;;;;;;5025718;28;20038;-67
2024/02/29 04:15:16;;;;;;;6.70;1.10;;;10.90;99.90;;;;;;5023215;28;20402;-67
2024/02/29 04:17:43;;;;;;;6.25;1.40;;;10.90;99.90;;;;;;5027769;28;20067;-67
2024/02/29 04:20:09;;;;;;;8.75;1.10;;;10.90;99.90;;;;;;5025079;28;20085;-67
2024/02/29 04:22:36;;;;;;;7.38;1.52;;;10.90;99.90;;;;;;5023710;28;20045;-67
2024/02/29 04:25:05;;;;;;;5.75;1.45;;;10.90;99.90;;;;;;5016080;28;20493;-67
2024/02/29 04:27:31;;;;;;;9.18;1.60;;;10.90;99.90;;;;;;5019382;28;20049;-67
2024/02/29 04:29:58;;;;;;;4.57;1.65;;;10.90;99.90;;;;;;5025676;28;20045;-67
2024/02/29 04:32:25;;;;;;;10.68;1.40;;;10.90;99.90;;;;;;5020827;28;20049;-67
2024/02/29 04:34:52;;;;;;;6.38;1.38;;;11.00;99.90;;;;;;5025217;28;20053;-67
2024/02/29 04:37:19;;;;;;;8.75;1.27;;;11.00;99.90;;;;;;5025209;28;20436;-68
2024/02/29 04:39:46;;;;;;;9.63;1.77;;;10.90;99.90;;;;;;5024132;28;20076;-69
2024/02/29 04:42:13;;;;;;;7.45;1.45;;;10.90;99.90;;;;;;5025420;28;20042;-68
2024/02/29 04:44:40;;;;;;;5.50;1.23;;;10.90;99.90;;;;;;5026692;28;20053;-67
2024/02/29 04:47:07;;;;;;;8.38;1.48;;;10.90;99.90;;;;;;5031074;28;20045;-67
2024/02/29 04:49:33;;;;;;;9.73;1.55;;;10.80;99.90;;;;;;5024110;28;20077;-67
2024/02/29 04:52:00;;;;;;;10.55;1.88;;;10.80;99.90;;;;;;5013266;28;20042;-67
2024/02/29 04:54:27;;;;;;;7.28;1.30;;;10.80;99.90;;;;;;5025212;28;20041;-68
2024/02/29 04:56:54;;;;;;;6.07;1.30;;;10.70;99.90;;;;;;5024587;28;20050;-67
2024/02/29 04:59:21;;;;;;;7.57;1.42;;;10.60;99.90;;;;;;5018090;28;20091;-67
2024/02/29 05:01:48;;;;;;;11.75;1.15;;;10.60;99.90;;;;;;5025399;28;20119;-67
2024/02/29 05:04:15;;;;;;;9.82;1.42;;;10.60;99.90;;;;;;5025316;28;20037;-67
2024/02/29 05:06:42;;;;;;;6.35;1.55;;;10.60;99.90;;;;;;5023240;28;20049;-68
2024/02/29 05:09:09;;;;;;;11.00;1.23;;;10.60;99.90;;;;;;5027783;28;20045;-67
2024/02/29 05:11:36;;;;;;;7.85;1.20;;;10.60;99.90;;;;;;5026876;28;20127;-67
2024/02/29 05:14:05;;;;;;;8.25;1.55;;;10.60;99.90;;;;;;5025211;28;20103;-68
2024/02/29 05:16:32;;;;;;;7.75;1.48;;;10.60;99.90;;;;;;5025245;28;20053;-68
2024/02/29 05:18:59;;;;;;;6.63;1.13;;;10.60;99.90;;;;;;5023467;28;20343;-68
2024/02/29 05:21:26;;;;;;;5.78;1.60;;;10.60;99.90;;;;;;5022447;28;20046;-68
2024/02/29 05:23:53;;;;;;;7.18;0.88;;;10.60;99.90;;;;;;5024834;28;20239;-68
2024/02/29 05:26:19;;;;;;;7.45;1.40;;;10.60;99.90;;;;;;5025721;28;20259;-68
2024/02/29 05:28:47;;;;;;;8.95;2.65;;;10.60;99.90;;;;;;5022618;28;20049;-68
2024/02/29 05:31:14;;;;;;;8.15;1.45;;;10.60;99.90;;;;;;5019095;28;20041;-68
2024/02/29 05:33:40;;;;;;;11.05;1.95;;;10.50;99.90;;;;;;5056631;28;20100;-68
2024/02/29 05:36:08;;;;;;;8.02;1.92;;;10.60;99.90;;;;;;5022985;28;20064;-68
2024/02/29 05:38:35;;;;;;;9.38;1.52;;;10.50;99.90;;;;;;5025404;28;20045;-68
2024/02/29 05:41:03;;;;;;;8.02;1.65;;;10.50;99.90;;;;;;5023933;28;20369;-68
2024/02/29 05:43:30;;;;;;;15.25;1.58;;;10.50;99.90;;;;;;5025111;28;20527;-67
2024/02/29 05:46:01;;;;;;;9.32;1.60;;;10.60;99.90;;;;;;5025526;28;20088;-68
2024/02/29 05:48:29;;;;;;;6.80;1.58;;;10.50;99.90;;;;;;5027661;28;20488;-68
2024/02/29 05:50:57;;;;;;;13.60;1.52;;;10.60;99.90;;;;;;5027644;28;20472;-68
2024/02/29 05:53:24;;;;;;;9.68;1.40;;;10.60;99.90;;;;;;5028108;28;20107;-69
2024/02/29 05:55:51;;;;;;;13.73;2.47;;;10.60;99.90;;;;;;5028059;28;20053;-66
2024/02/29 05:58:18;;;;;;;9.70;2.33;;;10.60;99.90;;;;;;5026292;28;20103;-67
2024/02/29 06:00:45;;;;;;;8.50;1.25;;;10.60;99.90;;;;;;5028879;28;20045;-67
2024/02/29 06:03:13;;;;;;;21.08;2.20;;;10.60;99.90;;;;;;5026390;28;20439;-67
2024/02/29 06:05:40;;;;;;;20.63;2.78;;;10.60;99.90;;;;;;5028624;28;20049;-68
2024/02/29 06:08:07;;;;;;;9.45;1.75;;;10.60;99.90;;;;;;5026527;28;20079;-68
2024/02/29 06:10:33;;;;;;;17.55;3.80;;;10.60;99.90;;;;;;5027983;28;20056;-66
2024/02/29 06:13:00;;;;;;;11.40;1.88;;;10.60;99.90;;;;;;5027194;28;20049;-68
2024/02/29 06:15:27;;;;;;;9.00;1.60;;;10.70;99.90;;;;;;5026943;28;20034;-68
2024/02/29 06:17:56;;;;;;;10.77;1.63;;;10.70;99.90;;;;;;5018348;28;20516;-68
2024/02/29 06:20:23;;;;;;;17.02;2.47;;;10.70;99.90;;;;;;5022400;28;20053;-68
2024/02/29 06:22:50;;;;;;;9.25;1.63;;;10.70;99.90;;;;;;5016825;28;20076;-68
2024/02/29 06:25:17;;;;;;;19.02;3.08;;;10.80;99.90;;;;;;5015288;28;20064;-68
2024/02/29 06:27:44;;;;;;;12.35;1.63;;;10.70;99.90;;;;;;5022171;28;20099;-68
2024/02/29 06:30:12;;;;;;;11.88;2.17;;;10.70;99.90;;;;;;5014280;28;20137;-68
2024/02/29 06:32:43;;;;;;;10.52;1.45;;;10.70;99.90;;;;;;5028065;28;20120;-68
2024/02/29 06:35:11;;;;;;;6.60;1.15;;;10.70;99.90;;;;;;5021880;28;20512;-68
2024/02/29 06:37:42;;;;;;;10.52;1.73;;;10.70;99.90;;;;;;5026445;28;20903;-67
2024/02/29 06:40:10;;;;;;;6.70;1.35;;;10.60;99.90;;;;;;5027897;28;20112;-68
2024/02/29 06:42:39;;;;;;;9.48;1.50;;;10.60;99.90;;;;;;5027140;28;20049;-67
2024/02/29 06:45:07;;;;;;;9.00;1.45;;;10.60;99.90;;;;;;5022926;28;20049;-68
2024/02/29 06:47:33;;;;;;;8.13;1.38;;;10.50;99.90;;;;;;5024545;28;20278;-68
2024/02/29 06:50:01;;;;;;;9.95;1.50;;;10.50;99.90;;;;;;5028223;28;20053;-68
2024/02/29 06:52:28;;;;;;;5.40;1.40;;;10.50;99.90;;;;;;5026532;28;20041;-70
2024/02/29 06:54:55;;;;;;;5.45;1.40;;;10.40;99.90;;;;;;5027280;28;20520;-68
2024/02/29 06:57:22;;;;;;;3.45;1.23;;;10.40;99.90;;;;;;5025647;28;20080;-68
2024/02/29 06:59:49;;;;;;;4.95;1.33;;;10.40;99.90;;;;;;5027024;28;20484;-68
2024/02/29 07:02:19;;;;;;;5.32;1.08;;;10.40;99.90;;;;;;5023870;28;20050;-68
2024/02/29 07:04:46;;;;;;;5.55;2.00;;;10.40;99.90;;;;;;5026644;28;20135;-69
2024/02/29 07:07:13;;;;;;;4.75;0.93;;;10.40;99.90;;;;;;5016897;28;20060;-68
2024/02/29 07:09:42;;;;;;;10.77;1.58;;;10.40;99.90;;;;;;5027449;28;20056;-67
2024/02/29 07:12:09;;;;;;;7.32;1.33;;;10.50;99.90;;;;;;5024031;28;20049;-67
2024/02/29 07:14:36;;;;;;;2.80;0.80;;;10.50;99.90;;;;;;5023304;28;20055;-68
2024/02/29 07:17:05;;;;;;;5.07;1.05;;;10.50;99.90;;;;;;5025701;28;20099;-67
2024/02/29 07:19:32;;;;;;;2.45;0.70;;;10.60;99.90;;;;;;5025386;28;20053;-67
2024/02/29 07:21:59;;;;;;;2.17;0.60;;;10.60;99.90;;;;;;5026900;28;20037;-68
2024/02/29 07:24:26;;;;;;;3.65;0.85;;;10.60;99.90;;;;;;5024732;28;20078;-69
2024/02/29 07:26:53;;;;;;;6.38;1.65;;;10.60;99.90;;;;;;5023281;28;20058;-67
2024/02/29 07:29:20;;;;;;;6.30;1.77;;;10.60;99.90;;;;;;5026891;28;20052;-68
2024/02/29 07:31:48;;;;;;;3.95;0.80;;;10.60;99.90;;;;;;5027692;28;20061;-66
2024/02/29 07:34:18;;;;;;;9.30;1.20;;;10.60;99.90;;;;;;5025383;28;20103;-67
2024/02/29 07:36:45;;;;;;;2.88;0.90;;;10.60;99.90;;;;;;5023633;28;20077;-66
2024/02/29 07:39:13;;;;;;;5.15;1.63;;;10.70;99.90;;;;;;5020770;28;20045;-66
2024/02/29 07:41:40;;;;;;;5.50;1.05;;;10.70;99.90;;;;;;5023640;28;20192;-68
2024/02/29 07:44:07;;;;;;;6.25;1.50;;;10.80;99.90;;;;;;5024726;28;20045;-67
2024/02/29 07:46:35;;;;;;;3.28;1.25;;;10.80;99.90;;;;;;5023340;28;20063;-67
2024/02/29 07:49:02;;;;;;;3.00;1.23;;;10.80;99.90;;;;;;5018937;28;20053;-66
2024/02/29 07:51:29;;;;;;;7.47;1.00;;;10.80;99.90;;;;;;5023002;28;20389;-66
2024/02/29 07:53:56;;;;;;;7.85;1.30;;;10.80;99.90;;;;;;5019394;28;20560;-66
2024/02/29 07:56:23;;;;;;;3.42;1.00;;;10.90;99.90;;;;;;5021542;28;20408;-66
2024/02/29 07:58:53;;;;;;;4.00;1.30;;;10.90;99.90;;;;;;5020288;28;20572;-67
2024/02/29 08:01:20;;;;;;;3.72;0.90;;;10.90;99.90;;;;;;5026253;28;20496;-68
2024/02/29 08:03:47;;;;;;;7.47;1.25;;;10.90;99.90;;;;;;5029734;28;20051;-66
2024/02/29 08:06:14;;;;;;;1.92;0.88;;;10.90;99.90;;;;;;5012468;28;20046;-66
2024/02/29 08:08:41;;;;;;;3.75;1.00;;;10.90;99.90;;;;;;5015930;28;20056;-66
2024/02/29 08:11:08;;;;;;;5.60;1.00;;;11.00;99.90;;;;;;5025899;28;20045;-67
2024/02/29 08:13:35;;;;;;;6.22;0.80;;;11.00;99.90;;;;;;5027738;28;20049;-66
2024/02/29 08:16:02;;;;;;;4.18;1.08;;;11.00;99.90;;;;;;5021854;28;20452;-66
2024/02/29 08:18:29;;;;;;;2.63;0.65;;;11.00;99.90;;;;;;5019171;28;20587;-66
2024/02/29 08:20:56;;;;;;;3.53;0.70;;;11.00;99.90;;;;;;5020625;28;20046;-67
2024/02/29 08:23:23;;;;;;;0.77;0.40;;;11.10;99.90;;;;;;5021478;28;20041;-67
2024/02/29 08:25:51;;;;;;;2.63;0.90;;;11.10;99.90;;;;;;5024430;28;20053;-68
2024/02/29 08:28:18;;;;;;;2.65;0.80;;;11.10;99.90;;;;;;5023199;28;20041;-67
2024/02/29 08:30:45;;;;;;;2.88;0.50;;;11.10;99.90;;;;;;5020231;28;20050;-67
2024/02/29 08:33:12;;;;;;;1.45;0.60;;;11.10;99.90;;;;;;5019690;28;20464;-66
2024/02/29 08:35:39;;;;;;;4.03;0.88;;;11.10;99.90;;;;;;5019476;28;20127;-67
2024/02/29 08:38:06;;;;;;;3.55;0.82;;;11.20;99.90;;;;;;5016418;28;20126;-66
2024/02/29 08:40:33;;;;;;;3.53;1.27;;;11.20;99.90;;;;;;5023315;28;20046;-66
2024/02/29 08:43:00;;;;;;;6.28;1.40;;;11.20;99.90;;;;;;5023209;28;20045;-67
2024/02/29 08:45:27;;;;;;;15.35;2.13;;;11.20;99.90;;;;;;5019750;28;20602;-67
2024/02/29 08:47:54;;;;;;;1.38;0.50;;;11.30;99.90;;;;;;5012579;28;20049;-67
2024/02/29 08:50:20;;;;;;;1.30;0.70;;;11.30;99.90;;;;;;5023774;28;20056;-67
2024/02/29 08:52:48;;;;;;;6.63;1.17;;;11.30;99.90;;;;;;5018968;28;20643;-68
2024/02/29 08:55:15;;;;;;;4.20;1.02;;;11.30;99.90;;;;;;5017737;28;20056;-67
2024/02/29 08:57:42;;;;;;;5.07;0.93;;;11.30;99.90;;;;;;5024130;28;20050;-68
2024/02/29 09:00:09;;;;;;;5.35;0.90;;;11.20;99.90;;;;;;5021868;28;20072;-68
2024/02/29 09:02:36;;;;;;;1.48;0.55;;;11.20;99.90;;;;;;5024976;28;20525;-67
2024/02/29 09:05:04;;;;;;;1.02;0.40;;;11.20;99.90;;;;;;5019845;28;20038;-67
2024/02/29 09:07:31;;;;;;;1.27;0.52;;;11.20;99.90;;;;;;5021017;28;20038;-67
2024/02/29 09:09:57;;;;;;;2.85;0.40;;;11.20;99.90;;;;;;5021949;28;20053;-69
2024/02/29 09:12:25;;;;;;;2.47;0.50;;;11.20;99.90;;;;;;5023721;28;20179;-68
2024/02/29 09:14:51;;;;;;;1.77;0.60;;;11.20;99.90;;;;;;5024242;28;20046;-68
2024/02/29 09:17:18;;;;;;;3.22;0.73;;;11.20;99.90;;;;;;5021325;28;20132;-69
2024/02/29 09:19:45;;;;;;;5.57;0.80;;;11.20;99.90;;;;;;5026416;28;20046;-69
2024/02/29 09:22:12;;;;;;;5.85;1.33;;;11.20;99.90;;;;;;5026408;28;20087;-67
2024/02/29 09:24:39;;;;;;;2.25;0.60;;;11.20;99.90;;;;;;5057498;28;20563;-69
2024/02/29 09:27:06;;;;;;;4.72;0.98;;;11.10;99.90;;;;;;5025771;28;20139;-68
2024/02/29 09:29:33;;;;;;;5.15;1.50;;;11.20;99.90;;;;;;5022488;28;20091;-69
2024/02/29 09:32:02;;;;;;;3.63;0.73;;;11.20;99.90;;;;;;5024473;28;20129;-69
2024/02/29 09:34:30;;;;;;;3.13;0.55;;;11.20;99.90;;;;;;5028272;28;20429;-68
2024/02/29 09:37:04;;;;;;;3.28;0.70;;;11.10;99.90;;;;;;5028445;28;20061;-70
2024/02/29 09:39:30;;;;;;;3.38;1.13;;;11.10;99.90;;;;;;5027058;28;20053;-69
2024/02/29 09:41:57;;;;;;;3.38;1.40;;;11.10;99.90;;;;;;5028007;28;20528;-69
2024/02/29 09:44:39;;;;;;;9.30;1.55;;;11.00;99.90;;;;;;5026688;28;20123;-70
2024/02/29 09:47:06;;;;;;;7.93;1.38;;;11.00;99.90;;;;;;5026248;28;20056;-69
2024/02/29 09:49:33;;;;;;;2.28;0.95;;;11.00;99.90;;;;;;5026037;28;20508;-69
2024/02/29 09:52:00;;;;;;;5.47;1.25;;;11.00;99.90;;;;;;5029835;28;20061;-69
2024/02/29 09:54:27;;;;;;;5.85;0.85;;;11.00;99.90;;;;;;5026849;28;20109;-69
2024/02/29 09:56:54;;;;;;;4.50;1.27;;;11.00;99.90;;;;;;5033589;28;20080;-70
2024/02/29 09:59:21;;;;;;;6.15;1.02;;;11.00;99.90;;;;;;5026461;28;20049;-69
2024/02/29 10:01:51;;;;;;;5.07;1.10;;;11.00;99.90;;;;;;5028678;28;20045;-69
2024/02/29 10:04:18;;;;;;;2.55;0.60;;;10.90;99.90;;;;;;5030202;28;20068;-68
2024/02/29 10:06:47;;;;;;;1.67;0.70;;;11.00;99.90;;;;;;5022427;28;20049;-69
2024/02/29 10:09:14;;;;;;;2.70;0.70;;;10.90;99.90;;;;;;5018114;28;20038;-68
2024/02/29 10:11:41;;;;;;;2.97;0.93;;;10.90;99.90;;;;;;5027743;28;20127;-68
2024/02/29 10:14:30;;;;;;;1.50;0.50;;;11.00;99.90;;;;;;5023419;28;20053;-69
2024/02/29 10:16:57;;;;;;;4.40;1.08;;;11.00;99.90;;;;;;5017778;28;20112;-69
2024/02/29 10:19:24;;;;;;;4.68;0.80;;;11.00;99.90;;;;;;5030294;28;20640;-68
2024/02/29 10:21:52;;;;;;;3.92;0.70;;;11.00;99.90;;;;;;5033154;28;20061;-70
2024/02/29 10:24:20;;;;;;;7.47;3.38;;;11.00;99.90;;;;;;5019153;28;20485;-69
2024/02/29 10:26:47;;;;;;;2.45;0.68;;;11.00;99.90;;;;;;5031387;28;20420;-69
2024/02/29 10:29:16;;;;;;;2.63;1.02;;;11.00;99.90;;;;;;5030888;28;20105;-69
2024/02/29 10:31:43;;;;;;;3.13;0.70;;;11.00;99.90;;;;;;5034372;28;20135;-69
2024/02/29 10:34:10;;;;;;;1.73;0.65;;;11.10;99.90;;;;;;5025157;28;20080;-68
2024/02/29 10:36:40;;;;;;;4.03;1.02;;;11.10;99.90;;;;;;5015913;28;20481;-69
2024/02/29 10:39:08;;;;;;;2.20;1.13;;;11.20;99.90;;;;;;5019817;28;20053;-68
2024/02/29 10:41:37;;;;;;;4.20;1.00;;;11.20;99.90;;;;;;5026022;28;20088;-70
2024/02/29 10:44:04;;;;;;;2.75;0.43;;;11.20;99.90;;;;;;5027663;28;20087;-69
2024/02/29 10:46:31;;;;;;;3.42;0.85;;;11.20;99.90;;;;;;5011167;28;20501;-69
2024/02/29 10:49:20;;;;;;;2.75;0.60;;;11.30;99.90;;;;;;5026236;28;20050;-69
2024/02/29 10:51:54;;;;;;;1.67;1.17;;;11.30;99.90;;;;;;5021248;28;20107;-69
2024/02/29 10:54:26;;;;;;;2.67;0.63;;;11.40;99.90;;;;;;5062171;28;20045;-69
2024/02/29 10:56:53;;;;;;;4.35;0.60;;;11.40;99.90;;;;;;5007558;28;20552;-70
2024/02/29 10:59:20;;;;;;;3.58;0.70;;;11.40;99.90;;;;;;5026888;28;20049;-70
2024/02/29 11:01:47;;;;;;;2.08;0.52;;;11.40;99.90;;;;;;5026543;28;20504;-69
2024/02/29 11:04:15;;;;;;;3.05;0.50;;;11.50;99.90;;;;;;5024936;28;20492;-68
2024/02/29 11:06:45;;;;;;;3.25;0.52;;;11.50;99.90;;;;;;4999014;28;20058;-69
2024/02/29 11:09:18;;;;;;;2.30;0.60;;;11.40;99.90;;;;;;5020589;28;20060;-70
2024/02/29 11:11:47;;;;;;;1.33;0.70;;;11.50;99.90;;;;;;5023381;28;20041;-69
2024/02/29 11:14:20;;;;;;;1.50;0.75;;;11.50;99.90;;;;;;5021626;28;20290;-70
2024/02/29 11:16:46;;;;;;;1.05;0.40;;;11.50;99.90;;;;;;5025320;28;20053;-71
2024/02/29 11:19:17;;;;;;;1.42;0.40;;;11.50;99.90;;;;;;5023372;28;20077;-70
2024/02/29 11:21:45;;;;;;;2.58;0.60;;;11.50;99.90;;;;;;5024577;28;20042;-69
2024/02/29 11:24:18;;;;;;;3.10;0.52;;;11.50;99.90;;;;;;5023585;28;20065;-70
2024/02/29 11:26:45;;;;;;;1.67;0.45;;;11.50;99.90;;;;;;5024472;28;20099;-69
2024/02/29 11:29:15;;;;;;;1.33;0.60;;;11.50;99.90;;;;;;5024614;28;20050;-70
2024/02/29 11:31:44;;;;;;;0.57;0.30;;;11.50;99.90;;;;;;5021400;28;20351;-69
2024/02/29 11:34:11;;;;;;;2.60;0.55;;;11.50;99.90;;;;;;5022711;28;20048;-68
2024/02/29 11:36:38;;;;;;;0.93;0.30;;;11.50;99.90;;;;;;5019893;28;20060;-69
2024/02/29 11:39:09;;;;;;;1.88;0.45;;;11.60;99.90;;;;;;5012831;28;20132;-70
2024/02/29 11:41:36;;;;;;;4.13;0.63;;;11.60;99.90;;;;;;5044925;28;20140;-71
2024/02/29 11:44:03;;;;;;;2.17;0.60;;;11.60;99.90;;;;;;5019925;28;20076;-70
2024/02/29 11:46:30;;;;;;;2.97;0.60;;;11.50;99.90;;;;;;5033914;28;20128;-70
2024/02/29 11:48:58;;;;;;;3.55;1.35;;;11.50;99.90;;;;;;5025526;28;20056;-70
2024/02/29 11:51:25;;;;;;;1.10;0.40;;;11.50;99.90;;;;;;5025685;28;20045;-70
2024/02/29 11:53:52;;;;;;;0.70;0.47;;;11.50;99.90;;;;;;5025708;28;20610;-71
2024/02/29 11:56:18;;;;;;;1.90;0.70;;;11.50;99.90;;;;;;5023767;28;20115;-69
2024/02/29 11:58:46;;;;;;;5.47;0.90;;;11.50;99.90;;;;;;5024950;28;20049;-69
2024/02/29 12:01:13;;;;;;;1.73;0.60;;;11.50;99.90;;;;;;5023962;28;20049;-69
2024/02/29 12:03:40;;;;;;;1.63;0.80;;;11.50;99.90;;;;;;5027886;28;20421;-70
2024/02/29 12:06:07;;;;;;;0.52;0.50;;;11.40;99.90;;;;;;5023400;28;20484;-71
2024/02/29 12:08:34;;;;;;;1.80;0.90;;;11.40;99.90;;;;;;5025208;28;20119;-70
2024/02/29 12:11:01;;;;;;;2.25;0.85;;;11.30;99.90;;;;;;5023327;28;20216;-70
2024/02/29 12:13:28;;;;;;;3.05;1.00;;;11.30;99.90;;;;;;5026034;28;20053;-70
2024/02/29 12:15:55;;;;;;;2.38;0.88;;;11.30;99.90;;;;;;5016915;28;20096;-68
2024/02/29 12:18:23;;;;;;;5.43;1.08;;;11.20;99.90;;;;;;5023339;28;20064;-71
2024/02/29 12:20:51;;;;;;;4.07;0.75;;;11.10;99.90;;;;;;5025125;28;20041;-71
2024/02/29 12:23:19;;;;;;;2.17;0.77;;;11.00;99.90;;;;;;5025702;28;20045;-71
2024/02/29 12:25:45;;;;;;;0.45;0.40;;;10.80;99.90;;;;;;5024721;28;20041;-70
2024/02/29 12:28:12;;;;;;;2.72;0.55;;;10.70;99.90;;;;;;5022851;28;20057;-70
2024/02/29 12:30:39;;;;;;;1.80;0.55;;;10.60;99.90;;;;;;5018685;28;20552;-70
2024/02/29 12:33:09;;;;;;;0.75;0.40;;;10.50;99.90;;;;;;5018207;28;20175;-70
2024/02/29 12:35:36;;;;;;;6.72;0.75;;;10.30;99.90;;;;;;5024616;28;20080;-69
2024/02/29 12:38:04;;;;;;;0.93;0.50;;;10.30;99.90;;;;;;5023714;28;20484;-69
2024/02/29 12:40:32;;;;;;;1.33;0.68;;;10.10;99.90;;;;;;5026476;28;20045;-70
2024/02/29 12:43:00;;;;;;;1.88;0.65;;;10.10;99.90;;;;;;5022529;28;20449;-69
2024/02/29 12:45:27;;;;;;;3.55;0.90;;;10.20;99.90;;;;;;5024562;28;20046;-70